Faro Airport

Airport
ICAO code: 
LPFR
IATA Code: 
FAO
Summary
ICAO Region: 
EUR
Territory: 
Location: 
Faro, Faro
Serving: 
Faro
Elevation: 
24 ft
Coordinates: 
Aerial View: 
37° 0' 55.475" N, 7° 58' 19.102" W
Metar
Observation
LPFR 221030Z 06013KT CAVOK 13/05 Q1024
Station
Faro / Aeroporto
Date/Time
2022-01-22 10:30:00
Wind direction
60°
Wind speed
13 kts
Lowest cloud amount
clouds and visibility OK
Temperature
13°C
Dew point
5°C
Humidity
58%
QNH
1024 hPa
Weather condition
n/a

Description

International airport serving south coast of Portugal.

Climatology

Dry-summer subtropical ”Mediterranean" climate (Köppen climate classification Csa) - characterized by hot, dry summers and mild winters. During the summer, subtropical high pressure cells dominate, making rainfall unlikely except for the occasional thunderstorm. In the winter, periodic storms bring rain.

Runways

Designator Length Width Surface Rops
10/28 2490 45 ASP Yes/Yes
Airport map: 
Aerial View: 

Accidents and Serious Incidents at or in the vicinity of LPFR

SKYbrary Partners:

Safety knowledge contributed by: